Flight Track Log - Related Links

Times and Time Zones

All times are in EDT time to prevent confusion due to time zone crossing. See the SWA1233 flight status page for this flight to view local times or setup timezone preferences in your user account.

Time Position Orientation Groundspeed Altitude Reporting Facility
EDT Latitude Longitude Course Direction KTS MPH feet Rate Location/Type
Sat 07:54:26 PM 28.4000 -81.3000 156° South 167 192 800  Level Orlando TRACON
Sat 07:55:20 PM 28.3667 -81.2833 156° South 203 234 2,700 2,389 Climbing Orlando TRACON
Sat 07:56:14 PM 28.3167 -81.2500 150° Southeast 224 258 5,100 2,646 Climbing Orlando TRACON
Sat 07:58:35 PM 28.4817 -81.2417 North 260 299 11,300 2,627 Climbing Jacksonville Center
Sat 07:59:35 PM 28.5717 -81.2661 347° North 292 336 13,900 2,800 Climbing Jacksonville Center
Sat 08:00:35 PM 28.6700 -81.2883 349° North 332 382 16,900 2,950 Climbing Jacksonville Center
Sat 08:01:35 PM 28.7725 -81.3128 348° North 356 410 19,800 2,750 Climbing Jacksonville Center
Sat 08:02:35 PM 28.8750 -81.3394 347° North 368 423 22,400 2,450 Climbing Jacksonville Center
Sat 08:03:35 PM 28.9839 -81.3617 350° North 389 448 24,700 2,200 Climbing Jacksonville Center
Sat 08:04:35 PM 29.0950 -81.3931 346° North 401 461 26,800 1,950 Climbing Jacksonville Center
Sat 08:05:35 PM 29.2139 -81.4008 357° North 422 486 28,600 1,850 Climbing Jacksonville Center
Sat 08:06:35 PM 29.3372 -81.4133 355° North 432 497 30,500 1,800 Climbing Jacksonville Center
Sat 08:07:35 PM 29.4461 -81.4258 354° North 443 510 32,200 1,600 Climbing Jacksonville Center
Sat 08:08:35 PM 29.5692 -81.4383 355° North 443 510 33,700 1,500 Climbing Jacksonville Center
Sat 08:09:35 PM 29.6947 -81.4486 356° North 448 516 35,200 1,650 Climbing Jacksonville Center
Sat 08:10:35 PM 29.8200 -81.4611 355° North 448 516 37,000 1,650 Climbing Jacksonville Center
Sat 08:11:35 PM 29.9433 -81.4711 356° North 443 510 38,500 1,000 Climbing Jacksonville Center
Sat 08:12:35 PM 30.0667 -81.4861 354° North 443 510 39,000 250 Climbing Jacksonville Center
Sat 08:13:35 PM 30.1900 -81.4939 357° North 443 510 39,000  Level Jacksonville Center
Sat 08:14:35 PM 30.3133 -81.5067 355° North 443 510 39,000  Level Jacksonville Center
Sat 08:15:35 PM 30.4406 -81.5000 North 443 510 39,000  Level Jacksonville Center
Sat 08:16:35 PM 30.5636 -81.4908 North 443 510 39,000  Level Jacksonville Center
Sat 08:17:35 PM 30.6867 -81.4819 North 438 504 39,000  Level Jacksonville Center
Sat 08:18:35 PM 30.8097 -81.4728 North 438 504 39,000  Level Jacksonville Center
Sat 08:19:35 PM 30.9497 -81.4633 North 445 512 39,000  Level Jacksonville Center
Sat 08:20:35 PM 31.0728 -81.4542 North 445 512 39,000  Level Jacksonville Center
Sat 08:21:35 PM 31.1958 -81.4403 North 436 502 39,000  Level Jacksonville Center
Sat 08:22:35 PM 31.3186 -81.4214 North 444 511 39,000  Level Jacksonville Center
Sat 08:23:35 PM 31.4353 -81.3878 14° North 431 496 39,000  Level Jacksonville Center
Sat 08:24:35 PM 31.5369 -81.3422 21° North 430 495 39,000  Level Jacksonville Center
Sat 08:25:35 PM 31.6572 -81.2719 26° Northeast 430 495 39,000 -250 Level Jacksonville Center
Sat 08:26:35 PM 31.7650 -81.2064 27° Northeast 425 489 38,500 -750 Descending Jacksonville Center
Sat 08:27:35 PM 31.8561 -81.1486 28° Northeast 425 489 37,500 -750 Descending Jacksonville Center
Sat 08:28:35 PM 31.9719 -81.0803 27° Northeast 425 489 37,000 -250 Descending Jacksonville Center
Sat 08:29:35 PM 32.0650 -81.0197 29° Northeast 425 489 37,000  Level Jacksonville Center
Sat 08:30:35 PM 32.1808 -80.9533 26° Northeast 425 489 37,000  Level Jacksonville Center
Sat 08:31:35 PM 32.2864 -80.8897 27° Northeast 409 471 37,000  Level Jacksonville Center
Sat 08:32:35 PM 32.3775 -80.8336 27° Northeast 409 471 37,000  Level Jacksonville Center
Sat 08:33:35 PM 32.4889 -80.7622 28° Northeast 409 471 37,000  Level Jacksonville Center
Sat 08:34:35 PM 32.5922 -80.6981 28° Northeast 404 465 37,000  Level Jacksonville Center
Sat 08:35:35 PM 32.6956 -80.6364 27° Northeast 405 466 37,000  Level Jacksonville Center
Sat 08:36:35 PM 32.7967 -80.5694 29° Northeast 405 466 37,000  Level Jacksonville Center
Sat 08:37:35 PM 32.9019 -80.5075 26° Northeast 405 466 37,000  Level Jacksonville Center
Sat 08:38:35 PM 33.0008 -80.4478 27° Northeast 400 460 37,000  Level Jacksonville Center
Sat 08:39:35 PM 33.0978 -80.3808 30° Northeast 417 480 37,000  Level Jacksonville Center
Sat 08:40:35 PM 33.2008 -80.3208 26° Northeast 417 480 37,000  Level Jacksonville Center
Sat 08:41:35 PM 33.3061 -80.2581 26° Northeast 417 480 37,000  Level Jacksonville Center
Sat 08:42:35 PM 33.4047 -80.1931 29° Northeast 411 473 37,000  Level Jacksonville Center
Sat 08:43:35 PM 33.5036 -80.1278 29° Northeast 404 465 37,000  Level Jacksonville Center
Sat 08:44:35 PM 33.6044 -80.0647 28° Northeast 404 465 37,000  Level Jacksonville Center
Sat 08:45:35 PM 33.7053 -79.9992 28° Northeast 404 465 37,000  Level Jacksonville Center
Sat 08:46:35 PM 33.8058 -79.9333 29° Northeast 404 465 37,000  Level Jacksonville Center
Sat 08:47:35 PM 33.9044 -79.8700 28° Northeast 404 465 37,000  Level Jacksonville Center
Sat 08:48:35 PM 34.0094 -79.8061 27° Northeast 404 465 37,000  Level Jacksonville Center
Sat 08:49:35 PM 34.1100 -79.7375 29° Northeast 404 465 37,000  Level Jacksonville Center
Sat 08:50:35 PM 34.2106 -79.6736 28° Northeast 404 465 37,000  Level Jacksonville Center
Sat 08:51:35 PM 34.3217 -79.6092 26° Northeast 397 457 37,000  Level Jacksonville Center
Sat 08:52:13 PM 34.3872 -79.5756 23° Northeast 394 453 37,000  Level Washington Center
Sat 08:53:12 PM 34.4931 -79.5228 22° Northeast 411 473 37,000  Level Washington Center
Sat 08:54:13 PM 34.5953 -79.4672 24° Northeast 411 473 37,000  Level Washington Center
Sat 08:55:14 PM 34.7014 -79.4117 23° Northeast 406 467 37,000  Level Washington Center
Sat 08:56:15 PM 34.8072 -79.3583 22° Northeast 406 467 37,000  Level Washington Center
Sat 08:57:12 PM 34.9133 -79.3000 24° Northeast 406 467 37,000  Level Washington Center
Sat 08:58:13 PM 35.0175 -79.2439 24° Northeast 406 467 37,000  Level Washington Center
Sat 08:59:12 PM 35.1233 -79.1903 23° Northeast 406 467 37,000  Level Washington Center
Sat 09:00:13 PM 35.2314 -79.1342 23° Northeast 406 467 37,000  Level Washington Center
Sat 09:01:13 PM 35.3397 -79.0753 24° Northeast 406 467 37,000  Level Washington Center
Sat 09:02:14 PM 35.4308 -79.0256 24° Northeast 406 467 37,000  Level Washington Center
Sat 09:03:14 PM 35.5331 -78.9536 30° Northeast 406 467 37,000  Level Washington Center
Sat 09:04:14 PM 35.6292 -78.8733 34° Northeast 411 473 37,000  Level Washington Center
Sat 09:05:12 PM 35.7275 -78.7878 35° Northeast 424 488 37,000  Level Washington Center
Sat 09:06:14 PM 35.8236 -78.7019 36° Northeast 424 488 37,000  Level Washington Center
Sat 09:07:13 PM 35.9175 -78.6183 36° Northeast 419 482 37,000  Level Washington Center
Sat 09:08:14 PM 36.0136 -78.5347 35° Northeast 419 482 37,000  Level Washington Center
Sat 09:09:12 PM 36.1114 -78.4511 35° Northeast 419 482 37,000  Level Washington Center
Sat 09:10:13 PM 36.2075 -78.3669 35° Northeast 419 482 37,000  Level Washington Center
Sat 09:11:14 PM 36.3033 -78.2828 35° Northeast 414 476 37,000  Level Washington Center
Sat 09:12:14 PM 36.3989 -78.1983 35° Northeast 414 476 37,000  Level Washington Center
Sat 09:13:12 PM 36.5011 -78.1036 37° Northeast 414 476 37,000  Level Washington Center
Sat 09:14:12 PM 36.5989 -78.0186 35° Northeast 419 482 37,000  Level Washington Center
Sat 09:15:14 PM 36.6925 -77.9308 37° Northeast 419 482 37,000  Level Washington Center
Sat 09:16:15 PM 36.7900 -77.8456 35° Northeast 419 482 37,000  Level Washington Center
Sat 09:17:12 PM 36.8875 -77.7603 35° Northeast 419 482 37,000  Level Washington Center
Sat 09:18:14 PM 36.9831 -77.6744 36° Northeast 419 482 37,000  Level Washington Center
Sat 09:19:12 PM 37.0803 -77.5861 36° Northeast 419 482 37,000  Level Washington Center
Sat 09:20:13 PM 37.1756 -77.5025 35° Northeast 419 482 37,000  Level Washington Center
Sat 09:21:13 PM 37.2731 -77.4136 36° Northeast 424 488 37,000  Level Washington Center
Sat 09:22:12 PM 37.3703 -77.3297 34° Northeast 424 488 37,000  Level Washington Center
Sat 09:23:12 PM 37.4672 -77.2428 35° Northeast 424 488 37,000  Level Washington Center
Sat 09:24:13 PM 37.5644 -77.1508 37° Northeast 431 496 37,000  Level Washington Center
Sat 09:25:12 PM 37.6617 -77.0608 36° Northeast 431 496 37,000  Level Washington Center
Sat 09:26:13 PM 37.7522 -76.9733 37° Northeast 431 496 37,000  Level Washington Center
Sat 09:27:14 PM 37.8472 -76.8856 36° Northeast 426 490 37,000  Level Washington Center
Sat 09:28:13 PM 37.9439 -76.7978 36° Northeast 426 490 37,000  Level Washington Center
Sat 09:29:12 PM 38.0386 -76.7097 36° Northeast 426 490 37,000  Level Washington Center
Sat 09:30:12 PM 38.1311 -76.6211 37° Northeast 421 484 37,000  Level Washington Center
Sat 09:31:12 PM 38.2258 -76.5328 36° Northeast 416 479 37,000  Level Washington Center
Sat 09:32:12 PM 38.3161 -76.4464 37° Northeast 416 479 37,000  Level Washington Center
Sat 09:33:14 PM 38.4106 -76.3600 36° Northeast 405 466 37,000  Level Washington Center
Sat 09:34:13 PM 38.5028 -76.2736 36° Northeast 410 472 37,000  Level Washington Center
Sat 09:35:14 PM 38.5950 -76.1867 36° Northeast 410 472 37,000  Level Washington Center
Sat 09:36:12 PM 38.6850 -76.1050 35° Northeast 418 481 37,000  Level Washington Center
Sat 09:37:13 PM 38.7769 -76.0178 36° Northeast 418 481 37,000  Level Washington Center
Sat 09:38:14 PM 38.8692 -75.9275 37° Northeast 418 481 37,000  Level Washington Center
Sat 09:39:12 PM 38.9631 -75.8372 37° Northeast 418 481 37,000  Level Washington Center
Sat 09:40:12 PM 39.0569 -75.7467 37° Northeast 418 481 37,000  Level Washington Center
Sat 09:41:13 PM 39.1508 -75.6586 36° Northeast 418 481 37,000 -446 Level Washington Center
Sat 09:42:13 PM 39.2425 -75.5703 37° Northeast 418 481 36,100 -958 Descending Washington Center
Sat 09:43:12 PM 39.3342 -75.4789 38° Northeast 418 481 35,100 -550 Descending Washington Center
Sat 09:44:13 PM 39.4278 -75.3875 37° Northeast 418 481 35,000 -50 Descending Washington Center
Sat 09:45:12 PM 39.5236 -75.2956 36° Northeast 418 481 35,000  Level Washington Center
Sat 09:46:12 PM 39.6150 -75.2036 38° Northeast 418 481 35,000  Level Washington Center
Sat 09:48:26 PM 39.8275 -74.9931 37° Northeast 420 483 35,000  Level New York Center
Sat 09:49:27 PM 39.9203 -74.9011 37° Northeast 413 475 35,000  Level New York Center
Sat 09:50:26 PM 39.9906 -74.7969 49° Northeast 415 478 35,000  Level New York Center
Sat 09:51:25 PM 40.1014 -74.7303 25° Northeast 403 464 35,000  Level New York Center
Sat 09:52:25 PM 40.1983 -74.6950 16° North 390 449 35,000  Level New York Center
Sat 09:53:26 PM 40.3103 -74.6522 16° North 405 466 35,000  Level New York Center
Sat 09:54:27 PM 40.4197 -74.6147 15° North 405 466 35,000  Level New York Center
Sat 09:55:27 PM 40.5294 -74.5772 15° North 399 459 35,000  Level New York Center
Sat 09:56:25 PM 40.6389 -74.5422 14° North 399 459 35,000  Level New York Center
Sat 09:57:25 PM 40.7464 -74.5044 15° North 399 459 35,000  Level New York Center
Sat 09:58:26 PM 40.8539 -74.4664 15° North 399 459 35,000  Level New York Center
Sat 10:00:27 PM 41.0725 -74.3922 14° North 398 458 35,000  Level Boston Center
Sat 10:01:27 PM 41.1836 -74.3597 12° North 399 459 35,000  Level Boston Center
Sat 10:02:27 PM 41.2886 -74.3186 16° North 394 453 35,000  Level Boston Center
Sat 10:03:27 PM 41.3953 -74.2831 14° North 388 447 35,000 -200 Level Boston Center
Sat 10:04:27 PM 41.5022 -74.2444 15° North 388 447 34,600 -700 Descending Boston Center
Sat 10:05:27 PM 41.6114 -74.2089 14° North 393 452 33,600 -1,000 Descending Boston Center
Sat 10:06:27 PM 41.7203 -74.1700 15° North 393 452 32,600 -1,000 Descending Boston Center
Sat 10:07:27 PM 41.8333 -74.1342 13° North 392 451 31,600 -1,000 Descending Boston Center
Sat 10:08:27 PM 41.9381 -74.0978 14° North 387 445 30,600 -1,000 Descending Boston Center
Sat 10:09:27 PM 42.0247 -74.0136 36° Northeast 372 428 29,600 -800 Descending Boston Center
Sat 10:10:27 PM 42.0767 -73.8667 64° Northeast 383 441 29,000 -300 Descending Boston Center
Sat 10:11:27 PM 42.1306 -73.7222 63° Northeast 409 471 29,000  Level Boston Center
Sat 10:12:27 PM 42.1842 -73.5692 65° Northeast 419 482 29,000  Level Boston Center
Sat 10:13:27 PM 42.2356 -73.4328 63° Northeast 419 482 29,000 -100 Level Boston Center
Sat 10:14:27 PM 42.2825 -73.3044 64° Northeast 407 468 28,800 -1,150 Descending Boston Center
Sat 10:15:27 PM 42.3292 -73.1675 65° Northeast 396 456 26,700 -2,100 Descending Boston Center
Sat 10:16:27 PM 42.3822 -73.0133 65° Northeast 413 475 24,600 -2,000 Descending Boston Center
Sat 10:17:27 PM 42.4286 -72.8844 64° Northeast 407 468 22,700 -1,900 Descending Boston Center
Sat 10:18:27 PM 42.4750 -72.7497 65° Northeast 392 451 20,800 -1,850 Descending Boston Center
Sat 10:19:27 PM 42.5147 -72.6428 63° Northeast 366 421 19,000 -1,750 Descending Boston Center
Sat 10:20:27 PM 42.5567 -72.5275 64° Northeast 350 403 17,300 -1,800 Descending Boston Center
Sat 10:21:27 PM 42.5983 -72.4061 65° Northeast 350 403 15,400 -1,850 Descending Boston Center
Sat 10:22:27 PM 42.6400 -72.2906 64° Northeast 344 396 13,600 -1,800 Descending Boston Center
Sat 10:23:27 PM 42.6794 -72.1747 65° Northeast 337 388 11,800 -1,700 Descending Boston Center
Sat 10:24:27 PM 42.7206 -72.0531 65° Northeast 330 380 10,200 -1,350 Descending Boston Center
Sat 10:25:27 PM 42.7475 -71.9567 69° East 311 358 9,100 -1,300 Descending Boston Center
Sat 10:26:27 PM 42.7656 -71.8350 79° East 298 343 7,600 -1,350 Descending Boston Center
Sat 10:27:27 PM 42.7692 -71.7386 87° East 292 336 6,400 -1,300 Descending Boston Center
Sat 10:28:27 PM 42.7747 -71.6228 86° East 287 330 5,000 -1,000 Descending Boston Center
Sat 10:29:27 PM 42.7803 -71.5350 85° East 271 312 4,400 -750 Descending Boston Center
Sat 10:30:27 PM 42.7858 -71.4358 86° East 245 282 3,500 -800 Descending Boston Center
Sat 10:31:27 PM 42.8122 -71.3758 59° Northeast 227 261 2,800 -950 Descending Boston Center
Sat 10:32:27 PM 42.8603 -71.3892 349° North 135 155 1,600 -950 Descending Boston Center
Sat 10:33:27 PM 42.8897 -71.4086 334° Northwest 125 144 900 -600 Descending Boston Center
Sat 10:34:27 PM 42.9253 -71.4278 338° Northwest 130 150 400 14,050 Descending Boston Center
Sat 10:35:27 PM 42.9567 -71.4500 333° Northwest 130 150 29,000 14,300 Climbing Boston Center
Sat 10:36:27 PM 42.9881 -71.4694 336° Northwest 130 150 29,000  Level Boston Center
Sat 10:38:00 PM 42.9328 -71.4358 North  Level Estimated
Sat 10:45:00 PM 42.9328 -71.4358 North  Level Estimated
Sat 10:46:00 PM 42.9328 -71.4358 North  Level Estimated
Sat 10:47:00 PM 42.9328 -71.4358 North  Level Estimated
Sat 10:48:00 PM 42.9328 -71.4358 North  Level Estimated

Login

Don't have an account? Register now (free) for customized features, flight alerts, and more!